Time;durP1;ratioP1;P1;durP2;ratioP2;P2;SDS_P1;SDS_P2;PMS_P1;PMS_P2;Temp;Humidity;BMP_temperature;BMP_pressure;BME280_temperature;BME280_humidity;BME280_pressure;Samples;Min_cycle;Max_cycle;Signal;HPM_P1;HPM_P2
2024/01/13 00:01:47;;;;;;;45.08;22.48;;;2.30;99.90;;;;;;5100749;28;20047;-50
2024/01/13 00:04:13;;;;;;;49.22;22.58;;;2.30;99.90;;;;;;5100621;28;20054;-50
2024/01/13 00:06:38;;;;;;;46.88;23.45;;;2.30;99.90;;;;;;5099207;28;20025;-50
2024/01/13 00:09:04;;;;;;;47.00;23.25;;;2.30;99.90;;;;;;5101102;28;20177;-51
2024/01/13 00:11:29;;;;;;;47.75;21.92;;;2.30;99.90;;;;;;5098508;28;20020;-49
2024/01/13 00:13:55;;;;;;;48.00;20.92;;;2.40;99.90;;;;;;5101929;28;20031;-51
2024/01/13 00:16:20;;;;;;;40.90;20.50;;;2.40;99.90;;;;;;5093343;28;20027;-49
2024/01/13 00:18:46;;;;;;;45.65;22.63;;;2.40;99.90;;;;;;5095340;28;20492;-52
2024/01/13 00:21:11;;;;;;;44.35;20.60;;;2.30;99.90;;;;;;5099806;28;20027;-48
2024/01/13 00:23:37;;;;;;;40.42;19.85;;;2.30;99.90;;;;;;5102772;28;20032;-49
2024/01/13 00:26:02;;;;;;;41.88;21.42;;;2.40;99.90;;;;;;5105875;28;20023;-49
2024/01/13 00:28:28;;;;;;;37.58;19.58;;;2.30;99.90;;;;;;5098292;28;20489;-50
2024/01/13 00:30:54;;;;;;;35.10;18.23;;;2.40;99.90;;;;;;5105579;28;20016;-51
2024/01/13 00:33:19;;;;;;;35.97;17.88;;;2.40;99.90;;;;;;5104610;28;20091;-49
2024/01/13 00:35:45;;;;;;;34.63;18.08;;;2.40;99.90;;;;;;5104438;28;20370;-52
2024/01/13 00:38:10;;;;;;;34.90;18.95;;;2.40;99.90;;;;;;5105238;28;20502;-53
2024/01/13 00:40:36;;;;;;;36.35;18.40;;;2.40;99.90;;;;;;5103078;28;20028;-52
2024/01/13 00:43:01;;;;;;;34.38;17.05;;;2.40;99.90;;;;;;5106333;28;20030;-53
2024/01/13 00:45:27;;;;;;;31.30;17.15;;;2.40;99.90;;;;;;5103109;28;20027;-51
2024/01/13 00:47:52;;;;;;;32.05;17.30;;;2.40;99.90;;;;;;5105641;28;20023;-52
2024/01/13 00:50:18;;;;;;;31.45;17.45;;;2.40;99.90;;;;;;5104093;28;20044;-50
2024/01/13 00:52:43;;;;;;;31.45;17.15;;;2.40;99.90;;;;;;5104565;28;20135;-49
2024/01/13 00:55:09;;;;;;;30.23;16.88;;;2.40;99.90;;;;;;5105793;28;20085;-49
2024/01/13 00:57:34;;;;;;;31.55;16.33;;;2.40;99.90;;;;;;5094852;28;20223;-51
2024/01/13 01:00:00;;;;;;;30.33;16.67;;;2.40;99.90;;;;;;5105816;28;20027;-52
2024/01/13 01:02:25;;;;;;;39.75;16.95;;;2.40;99.90;;;;;;5102541;28;20361;-49
2024/01/13 01:04:51;;;;;;;29.63;16.50;;;2.40;99.90;;;;;;5104066;28;20024;-51
2024/01/13 01:07:16;;;;;;;35.45;17.50;;;2.40;99.90;;;;;;5104598;28;20046;-49
2024/01/13 01:09:42;;;;;;;34.72;17.40;;;2.40;99.90;;;;;;5104048;28;20023;-53
2024/01/13 01:12:07;;;;;;;32.97;17.13;;;2.40;99.90;;;;;;5095301;28;20032;-54
2024/01/13 01:14:33;;;;;;;32.95;18.10;;;2.40;99.90;;;;;;5092587;28;20031;-53
2024/01/13 01:16:58;;;;;;;36.38;17.55;;;2.40;99.90;;;;;;5092460;28;20157;-53
2024/01/13 01:19:24;;;;;;;35.58;17.52;;;2.40;99.90;;;;;;5090918;28;20036;-52
2024/01/13 01:21:49;;;;;;;29.63;15.23;;;2.40;99.90;;;;;;5100998;28;20036;-51
2024/01/13 01:24:15;;;;;;;31.67;15.65;;;2.40;99.90;;;;;;5105339;28;20036;-53
2024/01/13 01:26:40;;;;;;;32.05;16.17;;;2.40;99.90;;;;;;5103909;28;20428;-52
2024/01/13 01:29:07;;;;;;;29.58;15.45;;;2.40;99.90;;;;;;5105290;28;20065;-52
2024/01/13 01:31:32;;;;;;;30.73;14.75;;;2.40;99.90;;;;;;5103604;28;20398;-53
2024/01/13 01:33:58;;;;;;;30.30;16.02;;;2.40;99.90;;;;;;5104415;28;20410;-53
2024/01/13 01:36:23;;;;;;;28.63;15.02;;;2.40;99.90;;;;;;5104125;28;20026;-53
2024/01/13 01:38:49;;;;;;;32.17;14.20;;;2.40;99.90;;;;;;5104666;28;20496;-51
2024/01/13 01:41:15;;;;;;;27.67;15.27;;;2.40;99.90;;;;;;5105861;28;20107;-52
2024/01/13 01:43:40;;;;;;;27.50;14.90;;;2.40;99.90;;;;;;5103870;28;20047;-51
2024/01/13 01:46:06;;;;;;;28.48;16.17;;;2.40;99.90;;;;;;5106168;28;20456;-52
2024/01/13 01:48:38;;;;;;;26.25;13.45;;;2.40;99.90;;;;;;5103434;28;20034;-52
2024/01/13 01:51:04;;;;;;;29.90;15.43;;;2.40;99.90;;;;;;5098647;28;20021;-53
2024/01/13 01:53:32;;;;;;;25.15;14.40;;;2.40;99.90;;;;;;5091659;28;20013;-53
2024/01/13 01:55:59;;;;;;;27.70;14.93;;;2.40;99.90;;;;;;5089947;28;20031;-51
2024/01/13 01:58:25;;;;;;;24.98;14.35;;;2.40;99.90;;;;;;5096909;28;20024;-53
2024/01/13 02:00:51;;;;;;;27.23;13.77;;;2.50;99.90;;;;;;5104721;28;20103;-52
2024/01/13 02:03:17;;;;;;;29.23;13.65;;;2.40;99.90;;;;;;5099599;28;20027;-52
2024/01/13 02:05:42;;;;;;;24.92;14.27;;;2.40;99.90;;;;;;5104241;28;20024;-52
2024/01/13 02:08:08;;;;;;;29.00;14.27;;;2.40;99.90;;;;;;5105875;28;20059;-53
2024/01/13 02:10:33;;;;;;;29.38;15.38;;;2.40;99.90;;;;;;5098015;28;20099;-54
2024/01/13 02:12:59;;;;;;;28.98;14.27;;;2.40;99.90;;;;;;5093169;28;20028;-51
2024/01/13 02:15:25;;;;;;;29.90;15.98;;;2.40;99.90;;;;;;5089407;28;20020;-52
2024/01/13 02:17:50;;;;;;;30.73;15.68;;;2.40;99.90;;;;;;5093355;28;20484;-54
2024/01/13 02:20:16;;;;;;;26.95;13.23;;;2.40;99.90;;;;;;5091605;28;20378;-53
2024/01/13 02:22:42;;;;;;;28.10;14.27;;;2.40;99.90;;;;;;5094781;28;20064;-54
2024/01/13 02:25:08;;;;;;;33.05;15.38;;;2.30;99.90;;;;;;5095339;28;20039;-54
2024/01/13 02:27:34;;;;;;;32.15;16.17;;;2.40;99.90;;;;;;5093566;28;20019;-52
2024/01/13 02:29:59;;;;;;;27.23;15.15;;;2.40;99.90;;;;;;5096118;28;20020;-50
2024/01/13 02:32:25;;;;;;;25.83;14.20;;;2.40;99.90;;;;;;5094441;28;20476;-50
2024/01/13 02:34:50;;;;;;;31.13;16.45;;;2.40;99.90;;;;;;5094877;28;20042;-50
2024/01/13 02:37:16;;;;;;;30.35;15.70;;;2.40;99.90;;;;;;5094799;28;20024;-49
2024/01/13 02:39:42;;;;;;;35.97;17.52;;;2.40;99.90;;;;;;5103953;28;20038;-51
2024/01/13 02:42:08;;;;;;;34.13;17.08;;;2.40;99.90;;;;;;5106391;28;20446;-48
2024/01/13 02:44:34;;;;;;;34.75;16.48;;;2.40;99.90;;;;;;5102624;28;20024;-52
2024/01/13 02:46:59;;;;;;;39.05;17.73;;;2.40;99.90;;;;;;5105876;28;20073;-53
2024/01/13 02:49:25;;;;;;;34.67;16.92;;;2.40;99.90;;;;;;5104862;28;20519;-50
2024/01/13 02:51:51;;;;;;;34.00;16.48;;;2.40;99.90;;;;;;5104384;28;20047;-53
2024/01/13 02:54:16;;;;;;;35.30;17.17;;;2.30;99.90;;;;;;5106321;28;20023;-50
2024/01/13 02:56:42;;;;;;;34.03;16.25;;;2.40;99.90;;;;;;5103652;28;20051;-51
2024/01/13 02:59:07;;;;;;;35.92;16.60;;;2.30;99.90;;;;;;5100916;28;20035;-52
2024/01/13 03:01:34;;;;;;;30.27;16.42;;;2.40;99.90;;;;;;5105237;28;20608;-50
2024/01/13 03:04:00;;;;;;;32.00;15.52;;;2.40;99.90;;;;;;5106671;28;20108;-51
2024/01/13 03:06:26;;;;;;;32.95;16.48;;;2.30;99.90;;;;;;5105430;28;20031;-49
2024/01/13 03:08:53;;;;;;;30.33;15.38;;;2.30;99.90;;;;;;5105393;28;20569;-52
2024/01/13 03:11:19;;;;;;;29.15;16.08;;;2.40;99.90;;;;;;5106122;28;20072;-51
2024/01/13 03:13:45;;;;;;;33.42;17.25;;;2.40;99.90;;;;;;5103352;28;20095;-52
2024/01/13 03:16:11;;;;;;;34.60;16.08;;;2.40;99.90;;;;;;5106106;28;20019;-50
2024/01/13 03:18:37;;;;;;;35.38;18.48;;;2.40;99.90;;;;;;5104671;28;20035;-51
2024/01/13 03:21:04;;;;;;;31.60;15.50;;;2.40;99.90;;;;;;5106009;28;20023;-48
2024/01/13 03:23:29;;;;;;;35.58;16.70;;;2.40;99.90;;;;;;5103805;28;20551;-51
2024/01/13 03:25:55;;;;;;;32.20;15.95;;;2.40;99.90;;;;;;5092406;28;20153;-52
2024/01/13 03:28:24;;;;;;;28.48;15.68;;;2.40;99.90;;;;;;5104125;28;20507;-50
2024/01/13 03:30:50;;;;;;;32.13;16.40;;;2.40;99.90;;;;;;5104469;28;20020;-52
2024/01/13 03:33:16;;;;;;;30.70;15.40;;;2.40;99.90;;;;;;5106597;28;20027;-50
2024/01/13 03:35:42;;;;;;;28.52;15.13;;;2.40;99.90;;;;;;5105034;28;20107;-51
2024/01/13 03:38:07;;;;;;;29.55;14.00;;;2.40;99.90;;;;;;5106428;28;20036;-51
2024/01/13 03:40:33;;;;;;;29.30;15.80;;;2.40;99.90;;;;;;5105022;28;20050;-49
2024/01/13 03:43:00;;;;;;;27.75;15.23;;;2.40;99.90;;;;;;5106623;28;20051;-48
2024/01/13 03:45:25;;;;;;;26.85;15.15;;;2.40;99.90;;;;;;5106019;28;20077;-52
2024/01/13 03:47:51;;;;;;;26.52;14.23;;;2.40;99.90;;;;;;5103624;28;20422;-49
2024/01/13 03:50:17;;;;;;;30.55;15.18;;;2.40;99.90;;;;;;5106696;28;20201;-51
2024/01/13 03:52:42;;;;;;;29.77;15.18;;;2.40;99.90;;;;;;5105880;28;20032;-49
2024/01/13 03:55:08;;;;;;;26.20;13.30;;;2.40;99.90;;;;;;5106656;28;20481;-51
2024/01/13 03:57:34;;;;;;;25.00;13.75;;;2.40;99.90;;;;;;5106177;28;20089;-52
2024/01/13 03:59:59;;;;;;;23.10;11.73;;;2.40;99.90;;;;;;5110532;28;20030;-50
2024/01/13 04:02:27;;;;;;;24.10;13.90;;;2.40;99.90;;;;;;5110900;28;20370;-52
2024/01/13 04:04:52;;;;;;;28.75;13.93;;;2.40;99.90;;;;;;5110692;28;20012;-50
2024/01/13 04:07:18;;;;;;;25.67;12.63;;;2.40;99.90;;;;;;5111040;28;20393;-52
2024/01/13 04:09:43;;;;;;;21.20;11.93;;;2.40;99.90;;;;;;5108387;28;20089;-51
2024/01/13 04:12:09;;;;;;;25.70;12.30;;;2.40;99.90;;;;;;5111130;28;20055;-51
2024/01/13 04:14:35;;;;;;;23.25;12.93;;;2.40;99.90;;;;;;5110048;28;20027;-51
2024/01/13 04:17:00;;;;;;;20.40;11.43;;;2.40;99.90;;;;;;5110864;28;20027;-48
2024/01/13 04:19:26;;;;;;;19.67;10.95;;;2.40;99.90;;;;;;5107666;28;20044;-49
2024/01/13 04:21:51;;;;;;;22.02;10.73;;;2.40;99.90;;;;;;5110711;28;20090;-48
2024/01/13 04:24:17;;;;;;;22.73;9.90;;;2.40;99.90;;;;;;5111340;28;20031;-50
2024/01/13 04:26:43;;;;;;;19.25;10.27;;;2.40;99.90;;;;;;5108839;28;20051;-51
2024/01/13 04:29:10;;;;;;;18.63;10.10;;;2.40;99.90;;;;;;5107895;28;20023;-52
2024/01/13 04:31:35;;;;;;;17.80;10.27;;;2.40;99.90;;;;;;5110354;28;20388;-49
2024/01/13 04:34:01;;;;;;;16.92;9.25;;;2.40;99.90;;;;;;5110865;28;20023;-52
2024/01/13 04:36:26;;;;;;;15.85;9.70;;;2.40;99.90;;;;;;5110839;28;20019;-52
2024/01/13 04:38:52;;;;;;;17.02;9.50;;;2.40;99.90;;;;;;5110541;28;20193;-51
2024/01/13 04:41:18;;;;;;;15.48;8.80;;;2.40;99.90;;;;;;5111301;28;20034;-51
2024/01/13 04:43:43;;;;;;;14.60;8.80;;;2.30;99.90;;;;;;5110356;28;20031;-53
2024/01/13 04:46:10;;;;;;;17.35;9.30;;;2.40;99.90;;;;;;5111354;27;20027;-50
2024/01/13 04:48:36;;;;;;;14.63;8.05;;;2.40;99.90;;;;;;5110158;28;20024;-50
2024/01/13 04:51:02;;;;;;;16.23;7.82;;;2.40;99.90;;;;;;5111026;28;20397;-49
2024/01/13 04:53:28;;;;;;;13.02;7.63;;;2.40;99.90;;;;;;5111063;28;20038;-50
2024/01/13 04:55:55;;;;;;;16.98;8.00;;;2.40;99.90;;;;;;5111270;28;20016;-52
2024/01/13 04:58:20;;;;;;;12.75;7.00;;;2.30;99.90;;;;;;5110779;28;20032;-52
2024/01/13 05:00:47;;;;;;;11.63;7.07;;;2.40;99.90;;;;;;5109975;28;20428;-51
2024/01/13 05:03:13;;;;;;;18.02;7.13;;;2.30;99.90;;;;;;5111189;28;20500;-54
2024/01/13 05:05:38;;;;;;;13.77;7.70;;;2.30;99.90;;;;;;5110766;28;20094;-50
2024/01/13 05:08:04;;;;;;;13.73;8.52;;;2.30;99.90;;;;;;5110063;28;20015;-52
2024/01/13 05:10:30;;;;;;;13.10;8.15;;;2.30;99.90;;;;;;5110767;28;20042;-53
2024/01/13 05:12:55;;;;;;;13.63;7.60;;;2.30;99.90;;;;;;5111214;28;20050;-53
2024/01/13 05:15:22;;;;;;;13.90;8.40;;;2.30;99.90;;;;;;5111048;28;20027;-52
2024/01/13 05:17:47;;;;;;;14.55;7.50;;;2.30;99.90;;;;;;5110731;28;20035;-53
2024/01/13 05:20:13;;;;;;;13.27;8.00;;;2.30;99.90;;;;;;5110848;28;20040;-51
2024/01/13 05:22:38;;;;;;;12.75;7.55;;;2.30;99.90;;;;;;5111013;28;20035;-51
2024/01/13 05:25:04;;;;;;;13.45;7.32;;;2.30;99.90;;;;;;5109832;28;20564;-50
2024/01/13 05:27:30;;;;;;;12.43;7.55;;;2.30;99.90;;;;;;5107470;28;20027;-50
2024/01/13 05:29:56;;;;;;;12.77;7.47;;;2.30;99.90;;;;;;5094222;28;20256;-51
2024/01/13 05:32:21;;;;;;;11.30;7.35;;;2.30;99.90;;;;;;5111138;28;20016;-49
2024/01/13 05:34:47;;;;;;;13.80;6.97;;;2.30;99.90;;;;;;5104242;28;20431;-50
2024/01/13 05:37:13;;;;;;;14.40;6.85;;;2.30;99.90;;;;;;5088684;28;20031;-50
2024/01/13 05:39:38;;;;;;;15.23;7.85;;;2.30;99.90;;;;;;5090012;28;20040;-50
2024/01/13 05:42:04;;;;;;;12.18;6.47;;;2.30;99.90;;;;;;5088673;28;20101;-50
2024/01/13 05:44:30;;;;;;;11.32;7.20;;;2.30;99.90;;;;;;5088852;28;20016;-48
2024/01/13 05:46:55;;;;;;;12.15;7.05;;;2.30;99.90;;;;;;5088708;28;20128;-48
2024/01/13 05:49:21;;;;;;;13.65;6.97;;;2.20;99.90;;;;;;5088936;28;20020;-48
2024/01/13 05:51:46;;;;;;;12.93;7.20;;;2.20;99.90;;;;;;5089059;28;20122;-52
2024/01/13 05:54:12;;;;;;;14.25;7.28;;;2.20;99.90;;;;;;5089245;28;20051;-50
2024/01/13 05:56:38;;;;;;;12.73;6.80;;;2.20;99.90;;;;;;5089153;28;20024;-49
2024/01/13 05:59:03;;;;;;;11.30;6.28;;;2.20;99.90;;;;;;5089712;28;20036;-49
2024/01/13 06:01:30;;;;;;;11.43;6.65;;;2.20;99.90;;;;;;5090859;28;20024;-52
2024/01/13 06:03:55;;;;;;;12.50;6.95;;;2.20;99.90;;;;;;5091025;28;20100;-53
2024/01/13 06:06:21;;;;;;;9.95;5.80;;;2.20;99.90;;;;;;5090633;28;20468;-53
2024/01/13 06:08:47;;;;;;;12.80;6.22;;;2.20;99.90;;;;;;5090516;28;20252;-53
2024/01/13 06:11:12;;;;;;;14.43;7.20;;;2.20;99.90;;;;;;5090520;28;20012;-51
2024/01/13 06:13:39;;;;;;;11.98;5.85;;;2.20;99.90;;;;;;5090826;28;20095;-53
2024/01/13 06:16:04;;;;;;;11.43;5.95;;;2.20;99.90;;;;;;5090408;28;20031;-52
2024/01/13 06:18:30;;;;;;;12.98;6.55;;;2.20;99.90;;;;;;5089460;28;20024;-52
2024/01/13 06:20:55;;;;;;;7.93;5.00;;;2.20;99.90;;;;;;5089380;28;20457;-51
2024/01/13 06:23:21;;;;;;;9.80;5.70;;;2.20;99.90;;;;;;5090898;28;20028;-51
2024/01/13 06:25:47;;;;;;;9.55;5.22;;;2.20;99.90;;;;;;5089574;28;20022;-50
2024/01/13 06:28:12;;;;;;;10.50;5.75;;;2.20;99.90;;;;;;5090470;28;20124;-52
2024/01/13 06:30:38;;;;;;;8.95;5.45;;;2.20;99.90;;;;;;5089871;28;20017;-53
2024/01/13 06:33:04;;;;;;;9.30;4.95;;;2.20;99.90;;;;;;5090851;28;20072;-54
2024/01/13 06:35:29;;;;;;;7.88;4.38;;;2.20;99.90;;;;;;5090761;28;20057;-52
2024/01/13 06:37:56;;;;;;;8.40;4.65;;;2.20;99.90;;;;;;5090237;28;20111;-54
2024/01/13 06:40:21;;;;;;;8.45;5.18;;;2.20;99.90;;;;;;5090439;28;20417;-51
2024/01/13 06:42:47;;;;;;;8.70;4.43;;;2.20;99.90;;;;;;5091282;28;20024;-53
2024/01/13 06:45:12;;;;;;;9.48;5.30;;;2.20;99.90;;;;;;5089533;28;20053;-52
2024/01/13 06:47:38;;;;;;;10.93;6.03;;;2.10;99.90;;;;;;5089677;28;20028;-52
2024/01/13 06:50:04;;;;;;;8.07;4.53;;;2.10;99.90;;;;;;5088374;28;20053;-52
2024/01/13 06:52:29;;;;;;;8.63;5.05;;;2.10;99.90;;;;;;5089792;28;20101;-51
2024/01/13 06:54:55;;;;;;;8.85;5.25;;;2.10;99.90;;;;;;5090732;28;20024;-52
2024/01/13 06:57:22;;;;;;;7.70;4.28;;;2.10;99.90;;;;;;5088563;28;20498;-49
2024/01/13 06:59:47;;;;;;;8.40;5.15;;;2.10;99.90;;;;;;5090615;28;20362;-52
2024/01/13 07:02:13;;;;;;;8.15;4.70;;;2.10;99.90;;;;;;5087003;28;20073;-49
2024/01/13 07:04:40;;;;;;;6.97;4.35;;;2.10;99.90;;;;;;5089078;28;20020;-52
2024/01/13 07:07:06;;;;;;;10.80;5.05;;;2.10;99.90;;;;;;5089048;28;20431;-52
2024/01/13 07:09:32;;;;;;;8.57;4.95;;;2.10;99.90;;;;;;5090383;28;20040;-52
2024/01/13 07:11:58;;;;;;;6.88;4.47;;;2.10;99.90;;;;;;5091282;28;20028;-53
2024/01/13 07:14:23;;;;;;;6.88;4.63;;;2.00;99.90;;;;;;5090907;28;20022;-53
2024/01/13 07:16:49;;;;;;;6.82;4.70;;;2.10;99.90;;;;;;5091769;28;20016;-52
2024/01/13 07:19:15;;;;;;;7.57;4.63;;;2.00;99.90;;;;;;5090487;28;20107;-53
2024/01/13 07:21:41;;;;;;;7.97;4.70;;;2.00;99.90;;;;;;5091950;28;20115;-52
2024/01/13 07:24:08;;;;;;;8.07;4.65;;;2.10;99.90;;;;;;5090835;28;20078;-49
2024/01/13 07:26:41;;;;;;;8.80;5.85;;;2.10;99.90;;;;;;5091334;28;20442;-50
2024/01/13 07:29:07;;;;;;;7.53;4.68;;;2.00;99.90;;;;;;5090404;28;20485;-52
2024/01/13 07:31:33;;;;;;;9.23;5.50;;;2.10;99.90;;;;;;5091214;28;20026;-51
2024/01/13 07:33:59;;;;;;;7.95;5.10;;;2.10;99.90;;;;;;5090843;28;20073;-52
2024/01/13 07:36:24;;;;;;;10.45;5.20;;;2.10;99.90;;;;;;5094043;28;20032;-53
2024/01/13 07:38:50;;;;;;;9.45;5.28;;;2.10;99.90;;;;;;5094307;28;20179;-52
2024/01/13 07:41:16;;;;;;;12.40;5.43;;;2.10;99.90;;;;;;5089997;28;20024;-50
2024/01/13 07:43:44;;;;;;;9.48;5.45;;;2.10;99.90;;;;;;5090502;28;20054;-50
2024/01/13 07:46:12;;;;;;;9.02;5.38;;;2.10;99.90;;;;;;5091143;28;20024;-51
2024/01/13 07:48:38;;;;;;;8.43;5.00;;;2.10;99.90;;;;;;5092151;28;20493;-50
2024/01/13 07:51:04;;;;;;;9.07;5.35;;;2.10;99.90;;;;;;5089441;28;20039;-49
2024/01/13 07:53:29;;;;;;;6.82;4.65;;;2.10;99.90;;;;;;5090951;28;20020;-49
2024/01/13 07:55:55;;;;;;;8.80;5.45;;;2.20;99.90;;;;;;5092451;28;20488;-52
2024/01/13 07:58:20;;;;;;;10.20;5.20;;;2.10;99.90;;;;;;5091036;28;20028;-48
2024/01/13 08:00:46;;;;;;;10.90;5.97;;;2.20;99.90;;;;;;5090466;28;20035;-51
2024/01/13 08:03:11;;;;;;;7.82;5.25;;;2.20;99.90;;;;;;5089893;28;20516;-49
2024/01/13 08:05:38;;;;;;;9.02;5.78;;;2.20;99.90;;;;;;5091462;28;20462;-51
2024/01/13 08:08:06;;;;;;;8.15;5.28;;;2.20;99.90;;;;;;5091164;28;20030;-49
2024/01/13 08:10:32;;;;;;;11.38;6.28;;;2.20;99.90;;;;;;5090942;28;20192;-52
2024/01/13 08:13:00;;;;;;;9.13;5.43;;;2.20;99.90;;;;;;5090974;28;20028;-51
2024/01/13 08:15:26;;;;;;;9.38;5.53;;;2.20;99.90;;;;;;5089848;28;20024;-51
2024/01/13 08:17:51;;;;;;;8.00;5.25;;;2.30;99.90;;;;;;5092894;28;20109;-50
2024/01/13 08:20:18;;;;;;;7.78;4.80;;;2.30;99.90;;;;;;5089961;28;20034;-48
2024/01/13 08:22:46;;;;;;;10.77;5.75;;;2.40;99.90;;;;;;5093164;28;20526;-51
2024/01/13 08:25:14;;;;;;;8.27;5.15;;;2.40;99.90;;;;;;5090253;28;20444;-51
2024/01/13 08:27:40;;;;;;;8.85;4.60;;;2.40;99.90;;;;;;5092753;28;20038;-47
2024/01/13 08:30:06;;;;;;;6.18;4.50;;;2.40;99.90;;;;;;5091328;28;20012;-48
2024/01/13 08:32:31;;;;;;;6.97;4.25;;;2.50;99.90;;;;;;5090038;28;20032;-47
2024/01/13 08:34:58;;;;;;;7.65;4.72;;;2.40;99.90;;;;;;5093053;28;20051;-52
2024/01/13 08:37:23;;;;;;;7.45;3.97;;;2.40;99.90;;;;;;5091498;28;20024;-51
2024/01/13 08:39:49;;;;;;;5.75;3.85;;;2.40;99.90;;;;;;5092985;28;20450;-50
2024/01/13 08:42:15;;;;;;;4.95;3.38;;;2.40;99.90;;;;;;5091389;28;20024;-49
2024/01/13 08:44:40;;;;;;;5.97;3.72;;;2.40;99.90;;;;;;5095781;28;20039;-48
2024/01/13 08:47:06;;;;;;;4.65;3.53;;;2.40;99.90;;;;;;5095604;28;20461;-47
2024/01/13 08:49:31;;;;;;;5.95;3.42;;;2.40;99.90;;;;;;5095053;28;20472;-49
2024/01/13 08:51:57;;;;;;;5.45;3.35;;;2.40;99.90;;;;;;5096901;28;20027;-50
2024/01/13 08:54:23;;;;;;;5.80;3.60;;;2.30;99.90;;;;;;5095460;28;20021;-47
2024/01/13 08:56:50;;;;;;;5.00;3.28;;;2.40;99.90;;;;;;5097331;28;20024;-51
2024/01/13 08:59:16;;;;;;;4.90;3.03;;;2.30;99.90;;;;;;5095004;28;20362;-49
2024/01/13 09:01:41;;;;;;;6.03;3.83;;;2.40;99.90;;;;;;5096421;28;20075;-48
2024/01/13 09:04:10;;;;;;;4.60;3.08;;;2.30;99.90;;;;;;5096147;28;20035;-48
2024/01/13 09:06:36;;;;;;;5.43;3.92;;;2.30;99.90;;;;;;5095968;28;20036;-47
2024/01/13 09:09:02;;;;;;;4.40;3.08;;;2.30;99.90;;;;;;5096161;28;20035;-51
2024/01/13 09:11:29;;;;;;;4.13;3.10;;;2.30;99.90;;;;;;5095619;28;20394;-50
2024/01/13 09:13:54;;;;;;;5.00;3.58;;;2.30;99.90;;;;;;5097611;28;20452;-48
2024/01/13 09:16:20;;;;;;;4.65;3.17;;;2.30;99.90;;;;;;5095324;28;20031;-51
2024/01/13 09:18:45;;;;;;;5.60;3.85;;;2.30;99.90;;;;;;5097134;28;20577;-49
2024/01/13 09:21:12;;;;;;;5.53;3.60;;;2.40;99.90;;;;;;5095535;28;20477;-48
2024/01/13 09:23:39;;;;;;;6.57;3.80;;;2.40;99.90;;;;;;5092791;28;20050;-51
2024/01/13 09:26:05;;;;;;;10.80;4.35;;;2.40;99.90;;;;;;5096195;28;20050;-49
2024/01/13 09:28:32;;;;;;;5.65;3.65;;;2.50;99.90;;;;;;5095166;28;20052;-48
2024/01/13 09:30:58;;;;;;;3.70;3.00;;;2.50;99.90;;;;;;5097360;28;20012;-50
2024/01/13 09:33:24;;;;;;;5.15;3.08;;;2.50;99.90;;;;;;5102111;28;20412;-50
2024/01/13 09:35:50;;;;;;;5.50;3.25;;;2.50;99.90;;;;;;5097762;28;20016;-50
2024/01/13 09:38:15;;;;;;;8.25;3.55;;;2.60;99.90;;;;;;5095359;28;20393;-50
2024/01/13 09:40:41;;;;;;;4.65;3.00;;;2.60;99.90;;;;;;5096363;28;20020;-50
2024/01/13 09:43:31;;;;;;;5.50;3.30;;;2.60;99.90;;;;;;5093185;28;20031;-49
2024/01/13 09:45:57;;;;;;;4.85;3.00;;;2.60;99.90;;;;;;5093057;28;20065;-48
2024/01/13 09:48:23;;;;;;;5.55;3.05;;;2.60;99.90;;;;;;5094193;28;20032;-48
2024/01/13 09:50:52;;;;;;;6.07;3.42;;;2.60;99.90;;;;;;5097617;28;20091;-52
2024/01/13 09:53:28;;;;;;;5.32;2.42;;;2.60;99.90;;;;;;5095547;28;20058;-50
2024/01/13 09:56:05;;;;;;;6.13;2.20;;;2.70;99.90;;;;;;5097726;28;20024;-51
2024/01/13 09:58:31;;;;;;;4.30;2.90;;;2.70;99.90;;;;;;5095165;28;20103;-51
2024/01/13 10:00:59;;;;;;;4.60;2.17;;;2.70;99.90;;;;;;5097465;27;20051;-50
2024/01/13 10:03:25;;;;;;;4.60;2.35;;;2.70;99.90;;;;;;5095426;28;20030;-51
2024/01/13 10:05:52;;;;;;;4.78;2.33;;;2.80;99.90;;;;;;5096428;28;20027;-49
2024/01/13 10:08:30;;;;;;;3.67;2.65;;;2.70;99.90;;;;;;5095553;28;20016;-48
2024/01/13 10:10:55;;;;;;;5.22;2.72;;;2.80;99.90;;;;;;5096208;28;20043;-48
2024/01/13 10:13:21;;;;;;;3.70;2.42;;;2.80;99.90;;;;;;5095745;28;20051;-49
2024/01/13 10:15:47;;;;;;;4.28;2.60;;;2.70;99.90;;;;;;5097749;28;20020;-52
2024/01/13 10:18:13;;;;;;;3.35;2.17;;;2.80;99.90;;;;;;5096046;28;20204;-49
2024/01/13 10:20:39;;;;;;;4.78;3.13;;;2.90;99.90;;;;;;5096537;28;20503;-48
2024/01/13 10:23:05;;;;;;;4.38;2.80;;;3.00;99.90;;;;;;5096759;28;20051;-49
2024/01/13 10:25:31;;;;;;;3.33;2.58;;;3.00;99.90;;;;;;5095357;28;20426;-49
2024/01/13 10:27:56;;;;;;;2.63;1.92;;;3.10;99.90;;;;;;5097995;28;20055;-51
2024/01/13 10:30:22;;;;;;;3.45;2.35;;;3.20;99.90;;;;;;5095122;28;20020;-49
2024/01/13 10:32:47;;;;;;;3.58;2.50;;;3.20;99.90;;;;;;5096127;28;20034;-51
2024/01/13 10:35:17;;;;;;;3.83;2.42;;;3.20;99.90;;;;;;5094509;28;20107;-50
2024/01/13 10:37:43;;;;;;;2.72;2.33;;;3.30;99.90;;;;;;5097104;28;20102;-50
2024/01/13 10:40:09;;;;;;;4.28;2.95;;;3.30;99.90;;;;;;5100708;28;20453;-50
2024/01/13 10:42:38;;;;;;;3.60;2.70;;;3.30;99.90;;;;;;5102472;28;20663;-49
2024/01/13 10:45:09;;;;;;;6.75;3.40;;;3.30;99.90;;;;;;5100537;28;20024;-50
2024/01/13 10:47:45;;;;;;;5.87;3.67;;;3.30;99.90;;;;;;5103022;28;20088;-48
2024/01/13 10:50:11;;;;;;;4.60;3.33;;;3.30;99.90;;;;;;5101021;28;20065;-52
2024/01/13 10:52:54;;;;;;;8.82;3.58;;;3.30;99.90;;;;;;5097074;28;20028;-50
2024/01/13 10:55:21;;;;;;;4.30;3.08;;;3.30;99.90;;;;;;5095041;28;20141;-52
2024/01/13 10:57:47;;;;;;;5.32;3.50;;;3.30;99.90;;;;;;5096186;28;20016;-52
2024/01/13 11:00:13;;;;;;;4.78;3.45;;;3.30;99.90;;;;;;5096388;28;20056;-51
2024/01/13 11:02:41;;;;;;;5.70;3.83;;;3.30;99.90;;;;;;5096723;28;20020;-49
2024/01/13 11:05:08;;;;;;;6.10;4.30;;;3.30;99.90;;;;;;5097685;28;20020;-50
2024/01/13 11:07:34;;;;;;;6.82;4.60;;;3.20;99.90;;;;;;5094803;28;20454;-50
2024/01/13 11:10:02;;;;;;;11.35;5.35;;;3.30;99.90;;;;;;5097663;28;20333;-48
2024/01/13 11:12:39;;;;;;;6.75;4.65;;;3.20;99.90;;;;;;5095536;28;20020;-51
2024/01/13 11:15:17;;;;;;;8.00;4.85;;;3.20;99.90;;;;;;5089454;28;20012;-49
2024/01/13 11:17:46;;;;;;;7.72;4.78;;;3.30;99.90;;;;;;5097002;28;20016;-50
2024/01/13 11:20:12;;;;;;;7.00;4.53;;;3.30;99.90;;;;;;5096239;28;20016;-51
2024/01/13 11:22:39;;;;;;;8.38;5.18;;;3.30;99.90;;;;;;5096537;28;20034;-49
2024/01/13 11:25:25;;;;;;;8.13;5.47;;;3.30;99.90;;;;;;5098412;28;20147;-52
2024/01/13 11:28:02;;;;;;;9.48;5.32;;;3.30;99.90;;;;;;5098301;28;20111;-49
2024/01/13 11:30:40;;;;;;;7.78;5.63;;;3.30;99.90;;;;;;5094426;28;20162;-50
2024/01/13 11:33:09;;;;;;;11.75;5.75;;;3.30;99.90;;;;;;5093505;28;20145;-52
2024/01/13 11:35:35;;;;;;;9.88;5.35;;;3.20;99.90;;;;;;5096153;28;20224;-53
2024/01/13 11:38:01;;;;;;;12.07;6.35;;;3.20;99.90;;;;;;5098808;28;20388;-49
2024/01/13 11:40:27;;;;;;;10.52;6.68;;;3.20;99.90;;;;;;5091864;28;20032;-51
2024/01/13 11:43:07;;;;;;;10.57;6.15;;;3.20;99.90;;;;;;5099008;28;20496;-48
2024/01/13 11:45:42;;;;;;;10.43;5.88;;;3.30;99.90;;;;;;5094664;28;20081;-51
2024/01/13 11:48:29;;;;;;;9.48;6.55;;;3.20;99.90;;;;;;5097684;28;20031;-48
2024/01/13 11:50:55;;;;;;;14.30;6.95;;;3.20;99.90;;;;;;5099297;28;20016;-51
2024/01/13 11:53:36;;;;;;;9.98;6.43;;;3.20;99.90;;;;;;5096147;28;20102;-48
2024/01/13 11:56:06;;;;;;;13.05;6.75;;;3.20;99.90;;;;;;5092685;28;20127;-50
2024/01/13 11:58:36;;;;;;;11.75;6.80;;;3.20;99.90;;;;;;5096093;28;20024;-50
2024/01/13 12:01:05;;;;;;;11.35;6.78;;;3.20;99.90;;;;;;5098761;28;20044;-49
2024/01/13 12:03:31;;;;;;;14.98;7.32;;;3.20;99.90;;;;;;5096006;28;20405;-48
2024/01/13 12:05:58;;;;;;;15.00;7.38;;;3.30;99.90;;;;;;5091911;28;20023;-49
2024/01/13 12:08:25;;;;;;;11.25;6.88;;;3.40;99.90;;;;;;5095836;28;20477;-51
2024/01/13 12:10:53;;;;;;;10.70;6.85;;;3.50;99.90;;;;;;5098470;28;20020;-48
2024/01/13 12:13:20;;;;;;;13.98;6.97;;;3.60;99.90;;;;;;5097212;28;20016;-51
2024/01/13 12:15:46;;;;;;;11.73;7.53;;;3.60;99.90;;;;;;5098524;28;20028;-49
2024/01/13 12:18:25;;;;;;;11.93;6.88;;;3.50;99.90;;;;;;5100316;28;20212;-48
2024/01/13 12:20:57;;;;;;;10.45;6.30;;;3.50;99.90;;;;;;5097218;28;20016;-49
2024/01/13 12:23:23;;;;;;;12.75;7.00;;;3.50;99.90;;;;;;5100872;28;20412;-48
2024/01/13 12:25:51;;;;;;;11.43;7.03;;;3.50;99.90;;;;;;5102631;28;20097;-51
2024/01/13 12:28:17;;;;;;;10.35;6.38;;;3.50;99.90;;;;;;5101166;28;20034;-50
2024/01/13 12:30:44;;;;;;;10.05;6.45;;;3.40;99.90;;;;;;5101607;28;20016;-51
2024/01/13 12:33:11;;;;;;;11.50;6.72;;;3.50;99.90;;;;;;5101971;28;20038;-46
2024/01/13 12:35:37;;;;;;;7.82;5.22;;;3.40;99.90;;;;;;5099547;28;20026;-49
2024/01/13 12:38:06;;;;;;;9.55;6.38;;;3.50;99.90;;;;;;5103109;28;20407;-52
2024/01/13 12:40:35;;;;;;;9.70;6.88;;;3.50;99.90;;;;;;5096241;28;20020;-49
2024/01/13 12:43:01;;;;;;;10.20;6.47;;;3.40;99.90;;;;;;5098583;28;20310;-49
2024/01/13 12:45:27;;;;;;;11.45;6.47;;;3.40;99.90;;;;;;5095340;28;20132;-50